Time;durP1;ratioP1;P1;durP2;ratioP2;P2;SDS_P1;SDS_P2;PMS_P1;PMS_P2;Temp;Humidity;BMP_temperature;BMP_pressure;BME280_temperature;BME280_humidity;BME280_pressure;Samples;Min_cycle;Max_cycle;Signal;HPM_P1;HPM_P2
2023/10/03 00:00:56;;;;;;;7.60;3.63;;;;;;;14.95;100.00;100999.19;5040604;28;20115;-80
2023/10/03 00:03:28;;;;;;;6.70;3.13;;;;;;;14.92;100.00;100997.44;5046263;28;20052;-80
2023/10/03 00:05:57;;;;;;;13.60;4.22;;;;;;;14.91;100.00;100994.78;5046696;28;20107;-80
2023/10/03 00:08:28;;;;;;;5.60;3.15;;;;;;;14.87;100.00;100984.31;5042167;28;20045;-81
2023/10/03 00:10:57;;;;;;;5.25;3.10;;;;;;;14.85;100.00;100992.97;5043945;28;20556;-82
2023/10/03 00:13:26;;;;;;;6.05;3.50;;;;;;;14.82;100.00;100983.38;5047780;28;20079;-82
2023/10/03 00:15:55;;;;;;;5.32;2.97;;;;;;;14.79;100.00;100975.50;5045448;28;20045;-82
2023/10/03 00:18:36;;;;;;;;;;;;;;;;;;;;;
2023/10/03 00:21:05;;;;;;;4.47;2.87;;;;;;;14.74;100.00;100969.34;5043816;28;20053;-84
2023/10/03 00:23:34;;;;;;;6.57;2.78;;;;;;;14.73;100.00;100977.13;5049882;28;20047;-79
2023/10/03 00:26:04;;;;;;;4.55;3.03;;;;;;;14.70;100.00;100977.97;5046866;28;20063;-83
2023/10/03 00:28:33;;;;;;;8.48;2.97;;;;;;;14.64;100.00;100960.53;5043676;28;20112;-80
2023/10/03 00:31:03;;;;;;;6.50;3.28;;;;;;;14.60;100.00;100963.06;5036059;28;20053;-83
2023/10/03 00:33:33;;;;;;;5.38;2.90;;;;;;;14.59;100.00;100948.25;5043156;28;20167;-80
2023/10/03 00:36:02;;;;;;;4.07;2.85;;;;;;;14.55;100.00;100946.47;5046070;27;20089;-81
2023/10/03 00:38:34;;;;;;;5.55;2.67;;;;;;;14.56;100.00;100941.28;5026100;28;20085;-80
2023/10/03 00:41:03;;;;;;;6.18;2.80;;;;;;;14.56;100.00;100940.41;5037906;28;20057;-81
2023/10/03 00:43:33;;;;;;;3.35;1.95;;;;;;;14.54;100.00;100932.56;5031614;28;20628;-81
2023/10/03 00:46:03;;;;;;;6.53;2.55;;;;;;;14.52;100.00;100935.97;5039500;28;20052;-82
2023/10/03 00:48:34;;;;;;;4.00;2.00;;;;;;;14.48;100.00;100926.34;5043486;28;20091;-83
2023/10/03 00:51:03;;;;;;;3.28;2.10;;;;;;;14.46;100.00;100909.00;5043640;28;20114;-81
2023/10/03 00:53:32;;;;;;;2.83;1.52;;;;;;;14.37;100.00;100903.63;5043749;28;20136;-80
2023/10/03 00:56:02;;;;;;;3.05;2.17;;;;;;;14.36;100.00;100914.91;5049013;28;20128;-80
2023/10/03 00:58:43;;;;;;;4.88;2.08;;;;;;;14.32;100.00;100920.91;5035233;28;20084;-81
2023/10/03 01:01:13;;;;;;;2.83;1.88;;;;;;;14.25;100.00;100919.06;5041194;28;20037;-80
2023/10/03 01:03:43;;;;;;;3.85;2.17;;;;;;;14.29;100.00;100923.44;5041007;28;20041;-79
2023/10/03 01:06:13;;;;;;;3.92;1.90;;;;;;;14.24;100.00;100918.16;5044338;28;20053;-80
2023/10/03 01:08:46;;;;;;;6.18;2.08;;;;;;;14.23;100.00;100918.16;5030845;28;20057;-80
2023/10/03 01:11:18;;;;;;;4.22;2.17;;;;;;;14.22;100.00;100914.69;5049280;28;20117;-79
2023/10/03 01:13:49;;;;;;;10.77;1.95;;;;;;;14.21;100.00;100919.84;5043370;28;20057;-80
2023/10/03 01:16:29;;;;;;;3.05;2.22;;;;;;;14.22;100.00;100908.56;5038159;28;20046;-81
2023/10/03 01:19:08;;;;;;;2.60;1.70;;;;;;;14.23;100.00;100913.81;5046258;28;20049;-80
2023/10/03 01:21:37;;;;;;;4.80;2.40;;;;;;;14.23;100.00;100900.81;5043383;28;20053;-87
2023/10/03 01:24:09;;;;;;;3.22;2.05;;;;;;;14.22;100.00;100892.97;5052719;28;20045;-80
2023/10/03 01:26:38;;;;;;;7.18;2.67;;;;;;;14.22;100.00;100886.06;5051931;28;20612;-84
2023/10/03 01:29:23;;;;;;;4.72;2.53;;;;;;;14.18;100.00;100899.00;5045937;28;20056;-82
2023/10/03 01:31:54;;;;;;;5.88;2.50;;;;;;;14.15;100.00;100878.09;5045372;28;20044;-84
2023/10/03 01:34:22;;;;;;;3.95;2.15;;;;;;;14.10;100.00;100877.16;5050738;28;20051;-83
2023/10/03 01:36:58;;;;;;;2.78;2.30;;;;;;;14.07;100.00;100877.97;5059888;28;20053;-85
2023/10/03 01:39:35;;;;;;;3.35;2.38;;;;;;;14.11;100.00;100869.38;5055554;28;20068;-84
2023/10/03 01:42:04;;;;;;;4.93;2.65;;;;;;;14.11;100.00;100858.06;5043395;28;20041;-84
2023/10/03 01:44:33;;;;;;;4.47;2.67;;;;;;;14.10;100.00;100862.41;5059748;28;20049;-81
2023/10/03 01:47:15;;;;;;;4.28;2.65;;;;;;;14.05;100.00;100856.25;5050625;28;20118;-79
2023/10/03 01:49:44;;;;;;;3.35;2.25;;;;;;;14.07;100.00;100851.09;5060280;28;20616;-81
2023/10/03 01:52:12;;;;;;;3.70;2.40;;;;;;;14.06;100.00;100854.53;5059358;28;20041;-80
2023/10/03 01:54:43;;;;;;;4.18;2.47;;;;;;;14.06;100.00;100841.50;5061825;28;20168;-84
2023/10/03 01:57:11;;;;;;;3.70;2.28;;;;;;;14.06;100.00;100836.31;5052035;28;20044;-81
2023/10/03 01:59:41;;;;;;;3.97;2.13;;;;;;;14.00;100.00;100821.50;5054669;28;20045;-83
2023/10/03 02:02:10;;;;;;;2.90;1.98;;;;;;;14.01;100.00;100829.31;5054917;28;20049;-85
2023/10/03 02:04:38;;;;;;;4.28;2.30;;;;;;;13.93;100.00;100820.50;5054092;28;20053;-88
2023/10/03 02:07:11;;;;;;;3.35;1.50;;;;;;;13.92;100.00;100839.56;5056740;28;20076;-83
2023/10/03 02:09:43;;;;;;;4.07;2.03;;;;;;;13.95;100.00;100823.13;5052568;28;20045;-83
2023/10/03 02:12:11;;;;;;;2.50;1.67;;;;;;;13.90;100.00;100828.25;5047234;28;20053;-80
2023/10/03 02:14:40;;;;;;;10.13;1.73;;;;;;;13.95;100.00;100828.31;5057260;28;20498;-81
2023/10/03 02:17:16;;;;;;;3.92;1.98;;;;;;;13.95;100.00;100813.63;5049415;28;20048;-85
2023/10/03 02:19:45;;;;;;;3.20;1.50;;;;;;;13.98;100.00;100808.44;5050512;28;20475;-83
2023/10/03 02:22:14;;;;;;;2.83;1.52;;;;;;;14.00;100.00;100822.34;5049623;28;20068;-81
2023/10/03 02:24:47;;;;;;;2.08;1.30;;;;;;;14.03;100.00;100812.00;5055517;28;20045;-82
2023/10/03 02:27:17;;;;;;;2.25;1.35;;;;;;;14.01;100.00;100813.69;5046301;28;20099;-86
2023/10/03 02:29:51;;;;;;;2.05;1.40;;;;;;;14.06;100.00;100803.34;5052746;28;20137;-82
2023/10/03 02:32:19;;;;;;;2.92;1.23;;;;;;;14.08;100.00;100803.41;5050432;28;20166;-80
2023/10/03 02:34:56;;;;;;;1.63;1.27;;;;;;;14.11;100.00;100806.94;5049274;28;20053;-81
2023/10/03 02:37:25;;;;;;;2.53;1.20;;;;;;;14.09;100.00;100790.41;5055166;28;20125;-78
2023/10/03 02:39:55;;;;;;;2.58;1.67;;;;;;;14.13;100.00;100796.53;5047147;28;20387;-86
2023/10/03 02:42:24;;;;;;;2.33;1.33;;;;;;;14.14;100.00;100791.34;5047137;28;20402;-82
2023/10/03 02:45:03;;;;;;;2.10;1.30;;;;;;;14.14;100.00;100788.75;5047137;28;20593;-80
2023/10/03 02:47:33;;;;;;;1.73;1.30;;;;;;;14.14;100.00;100787.88;5048009;28;20128;-81
2023/10/03 02:50:02;;;;;;;2.35;1.65;;;;;;;14.17;100.00;100793.13;5040486;28;20057;-85
2023/10/03 02:52:39;;;;;;;3.53;1.75;;;;;;;14.19;100.00;100792.28;5051024;28;20699;-82
2023/10/03 02:55:12;;;;;;;1.73;1.30;;;;;;;14.19;100.00;100792.28;5054821;28;20071;-83
2023/10/03 02:57:40;;;;;;;3.78;1.45;;;;;;;14.23;100.00;100795.84;5057903;28;20055;-83
2023/10/03 03:00:12;;;;;;;2.08;1.13;;;;;;;14.24;100.00;100797.56;5054209;28;20064;-81
2023/10/03 03:02:47;;;;;;;3.40;1.55;;;;;;;14.27;100.00;100801.94;5052370;28;20045;-79
2023/10/03 03:05:17;;;;;;;2.60;1.20;;;;;;;14.29;100.00;100803.72;5049917;28;20045;-83
2023/10/03 03:07:47;;;;;;;3.20;1.17;;;;;;;14.30;100.00;100802.88;5051875;28;20090;-81
2023/10/03 03:10:27;;;;;;;4.05;1.50;;;;;;;14.29;100.00;100795.91;5043538;28;20053;-89
2023/10/03 03:12:57;;;;;;;2.42;1.20;;;;;;;14.33;100.00;100797.69;5052447;28;20490;-87
2023/10/03 03:15:28;;;;;;;2.47;1.20;;;;;;;14.36;100.00;100797.78;5050013;28;20056;-81
2023/10/03 03:17:56;;;;;;;1.35;1.17;;;;;;;14.37;100.00;100801.25;5057555;28;20745;-84
2023/10/03 03:20:28;;;;;;;1.40;1.20;;;;;;;14.39;100.00;100805.63;5050502;28;20053;-84
2023/10/03 03:23:00;;;;;;;2.23;1.20;;;;;;;14.37;100.00;100796.91;5046795;28;20053;-82
2023/10/03 03:25:37;;;;;;;4.20;0.95;;;;;;;14.37;100.00;100796.91;5049370;28;20072;-83
2023/10/03 03:28:13;;;;;;;2.13;1.15;;;;;;;14.40;100.00;100798.66;5047347;28;20091;-82
2023/10/03 03:30:45;;;;;;;2.25;1.10;;;;;;;14.42;100.00;100795.25;5046335;28;20053;-81
2023/10/03 03:33:19;;;;;;;1.52;1.17;;;;;;;14.43;100.00;100791.78;5049672;28;20099;-83
2023/10/03 03:35:48;;;;;;;1.60;1.10;;;;;;;14.38;100.00;100785.63;5048889;28;20045;-82
2023/10/03 03:38:18;;;;;;;1.98;1.23;;;;;;;14.46;100.00;100793.56;5046576;28;20057;-82
2023/10/03 03:40:55;;;;;;;1.95;1.27;;;;;;;14.48;100.00;100783.16;5051401;28;20129;-82
2023/10/03 03:43:28;;;;;;;2.50;1.30;;;;;;;14.50;100.00;100794.47;5046460;28;20049;-83
2023/10/03 03:45:56;;;;;;;3.63;1.15;;;;;;;14.44;100.00;100795.28;5042366;28;20108;-83
2023/10/03 03:48:25;;;;;;;3.70;1.48;;;;;;;14.50;100.00;100791.88;5046203;28;20387;-84
2023/10/03 03:50:54;;;;;;;4.47;1.25;;;;;;;14.51;100.00;100804.03;5050210;28;20049;-83
2023/10/03 03:53:29;;;;;;;1.88;1.20;;;;;;;14.45;100.00;100795.31;5052612;28;20052;-87
2023/10/03 03:56:00;;;;;;;1.90;1.20;;;;;;;14.49;100.00;100800.53;5033158;28;20114;-84
2023/10/03 03:58:30;;;;;;;3.28;1.45;;;;;;;14.48;100.00;100803.97;5050308;28;20040;-88
2023/10/03 04:01:00;;;;;;;2.97;1.58;;;;;;;14.50;100.00;100792.75;5046354;28;20112;-84
2023/10/03 04:03:34;;;;;;;2.38;1.83;;;;;;;14.53;100.00;100790.19;5048741;28;20076;-87
2023/10/03 04:06:03;;;;;;;2.88;1.20;;;;;;;14.58;100.00;100796.38;5050222;28;20152;-83
2023/10/03 04:08:31;;;;;;;2.05;1.20;;;;;;;14.56;100.00;100784.19;5050129;28;20147;-84
2023/10/03 04:11:07;;;;;;;7.13;1.70;;;;;;;14.56;100.00;100785.03;5049338;28;20048;-86
2023/10/03 04:13:39;;;;;;;1.23;1.00;;;;;;;14.59;100.00;100792.91;5049395;28;20111;-82
2023/10/03 04:16:14;;;;;;;1.65;1.05;;;;;;;14.59;100.00;100799.84;5049256;28;20481;-86
2023/10/03 04:18:49;;;;;;;2.80;1.73;;;;;;;14.60;100.00;100784.25;5047475;28;20045;-84
2023/10/03 04:21:17;;;;;;;3.67;1.40;;;;;;;14.63;100.00;100781.66;5049245;28;20148;-84
2023/10/03 04:23:47;;;;;;;6.20;1.42;;;;;;;14.66;100.00;100781.72;5048056;28;20049;-79
2023/10/03 04:26:18;;;;;;;5.90;2.03;;;;;;;14.62;100.00;100772.13;5044381;28;20049;-79
2023/10/03 04:28:49;;;;;;;2.50;1.80;;;;;;;14.63;100.00;100775.59;5041475;28;20049;-80
2023/10/03 04:31:18;;;;;;;2.55;1.60;;;;;;;14.62;100.00;100773.84;5042281;28;20060;-81
2023/10/03 04:33:46;;;;;;;3.15;1.40;;;;;;;14.66;100.00;100781.72;5043719;28;20052;-80
2023/10/03 04:36:16;;;;;;;2.63;1.48;;;;;;;14.67;100.00;100777.38;5042190;28;20055;-80
2023/10/03 04:38:46;;;;;;;3.85;1.50;;;;;;;14.69;100.00;100770.47;5058222;28;20071;-79
2023/10/03 04:41:19;;;;;;;1.67;1.20;;;;;;;14.70;100.00;100769.59;5064373;28;20488;-79
2023/10/03 04:43:51;;;;;;;;;;;;;;;14.74;100.00;100773.13;5063897;28;20052;-84
2023/10/03 04:46:20;;;;;;;2.80;1.42;;;;;;;14.77;100.00;100775.78;5065792;28;19924;-80
2023/10/03 04:48:50;;;;;;;3.35;1.52;;;;;;;14.75;100.00;100773.16;5062203;28;20121;-80
2023/10/03 04:51:21;;;;;;;4.63;1.60;;;;;;;14.76;100.00;100769.69;5061819;28;20063;-78
2023/10/03 04:53:49;;;;;;;2.10;1.20;;;;;;;14.79;100.00;100771.44;5065095;28;20083;-80
2023/10/03 04:56:19;;;;;;;2.28;1.67;;;;;;;14.80;100.00;100774.09;5064530;28;20143;-80
2023/10/03 04:58:48;;;;;;;4.95;1.58;;;;;;;14.81;100.00;100781.03;5066162;28;20059;-80
2023/10/03 05:01:17;;;;;;;3.42;1.50;;;;;;;14.81;100.00;100770.63;5063509;28;20049;-81
2023/10/03 05:03:46;;;;;;;1.85;1.20;;;;;;;14.83;100.00;100781.94;5063251;28;20080;-80
2023/10/03 05:06:14;;;;;;;2.53;1.52;;;;;;;14.86;100.00;100787.16;5066578;28;20052;-79
2023/10/03 05:08:43;;;;;;;3.10;1.20;;;;;;;14.88;100.00;100785.47;5070153;28;20048;-82
2023/10/03 05:11:13;;;;;;;2.80;1.50;;;;;;;14.91;100.00;100783.75;5065579;28;20564;-82
2023/10/03 05:13:46;;;;;;;4.03;1.25;;;;;;;14.90;100.00;100779.41;5073022;28;20053;-80
2023/10/03 05:16:14;;;;;;;2.17;1.35;;;;;;;14.84;100.00;100775.88;5067398;28;20048;-80
2023/10/03 05:18:43;;;;;;;2.05;1.30;;;;;;;14.93;100.00;100782.03;5071782;28;20057;-81
2023/10/03 05:21:13;;;;;;;1.63;1.38;;;;;;;14.88;100.00;100790.66;5072671;28;20113;-79
2023/10/03 05:23:42;;;;;;;2.90;1.05;;;;;;;14.90;100.00;100788.09;5071040;28;20089;-79
2023/10/03 05:26:10;;;;;;;1.92;1.13;;;;;;;14.89;100.00;100796.78;5068502;28;20080;-80
2023/10/03 05:28:42;;;;;;;1.63;1.13;;;;;;;14.85;100.00;100801.06;5069045;28;20457;-82
2023/10/03 05:31:14;;;;;;;1.88;1.20;;;;;;;14.86;100.00;100799.31;5068605;28;20071;-80
2023/10/03 05:33:43;;;;;;;1.65;1.25;;;;;;;14.87;100.00;100798.50;5071569;28;20048;-82
2023/10/03 05:36:18;;;;;;;2.58;1.50;;;;;;;14.90;100.00;100797.66;5070279;28;20078;-84
2023/10/03 05:38:47;;;;;;;1.77;1.17;;;;;;;14.90;100.00;100798.53;5067797;28;20080;-82
2023/10/03 05:41:25;;;;;;;2.05;1.10;;;;;;;14.88;100.00;100793.28;5068457;28;20060;-83
2023/10/03 05:43:56;;;;;;;1.95;1.17;;;;;;;14.88;100.00;100795.88;5069718;28;20056;-85
2023/10/03 05:46:24;;;;;;;2.40;1.20;;;;;;;14.89;100.00;100796.78;5074074;28;20061;-85
2023/10/03 05:48:53;;;;;;;1.52;1.05;;;;;;;14.92;100.00;100795.94;5073069;28;20045;-84
2023/10/03 05:51:23;;;;;;;1.58;1.25;;;;;;;14.93;100.00;100803.75;5068753;28;20051;-80
2023/10/03 05:53:55;;;;;;;2.28;1.20;;;;;;;14.94;100.00;100799.44;5068260;28;20055;-83
2023/10/03 05:56:24;;;;;;;2.08;1.30;;;;;;;14.94;100.00;100794.22;5063611;28;20049;-80
2023/10/03 05:58:52;;;;;;;1.27;0.90;;;;;;;14.95;100.00;100794.22;5065955;28;20414;-82
2023/10/03 06:01:23;;;;;;;2.30;1.30;;;;;;;14.96;100.00;100798.59;5070245;28;20077;-81
2023/10/03 06:03:51;;;;;;;4.20;1.30;;;;;;;14.94;100.00;100794.22;5067396;28;20044;-79
2023/10/03 06:06:22;;;;;;;2.05;1.63;;;;;;;14.92;100.00;100795.94;5066454;28;20485;-79
2023/10/03 06:08:51;;;;;;;3.05;1.48;;;;;;;14.94;100.00;100789.88;5066367;28;20653;-81
2023/10/03 06:11:20;;;;;;;1.60;1.08;;;;;;;14.98;100.00;100780.34;5066991;28;20053;-81
2023/10/03 06:13:49;;;;;;;1.60;1.38;;;;;;;14.99;100.00;100787.34;5064475;28;20167;-83
2023/10/03 06:16:22;;;;;;;2.35;1.35;;;;;;;14.98;100.00;100776.06;5068491;28;20053;-79
2023/10/03 06:18:51;;;;;;;6.55;1.23;;;;;;;15.00;100.00;100784.75;5071706;28;20600;-79
2023/10/03 06:21:20;;;;;;;3.65;1.67;;;;;;;15.04;100.00;100790.88;5067795;28;20059;-80
2023/10/03 06:23:49;;;;;;;1.55;0.90;;;;;;;15.04;100.00;100790.88;5073897;28;20052;-83
2023/10/03 06:26:20;;;;;;;7.88;1.60;;;;;;;15.04;100.00;100790.88;5071680;28;20703;-79
2023/10/03 06:28:49;;;;;;;1.80;1.30;;;;;;;15.04;100.00;100790.88;5067521;28;20044;-81
2023/10/03 06:31:18;;;;;;;2.53;1.20;;;;;;;15.06;100.00;100794.38;5065753;28;20157;-82
2023/10/03 06:33:49;;;;;;;3.20;1.20;;;;;;;15.02;100.00;100782.16;5069251;28;20052;-84
2023/10/03 06:36:18;;;;;;;2.65;1.27;;;;;;;15.02;100.00;100787.38;5068678;28;20084;-80
2023/10/03 06:38:50;;;;;;;3.30;1.10;;;;;;;15.06;100.00;100789.16;5074580;28;20052;-84
2023/10/03 06:41:21;;;;;;;1.57;1.13;;;;;;;15.05;100.00;100787.41;5061406;28;20127;-82
2023/10/03 06:43:50;;;;;;;1.50;0.88;;;;;;;15.07;100.00;100780.47;5064483;28;20588;-83
2023/10/03 06:46:19;;;;;;;2.53;1.50;;;;;;;15.04;100.00;100786.53;5069691;28;20142;-85
2023/10/03 06:48:53;;;;;;;1.65;1.20;;;;;;;15.06;100.00;100789.16;5064161;28;20063;-85
2023/10/03 06:51:22;;;;;;;1.73;1.10;;;;;;;15.08;100.00;100784.84;5067592;28;20063;-85
2023/10/03 06:53:52;;;;;;;1.63;0.90;;;;;;;15.04;100.00;100799.56;5061847;28;20055;-84
2023/10/03 06:56:21;;;;;;;2.30;1.20;;;;;;;15.05;100.00;100803.94;5070532;28;20057;-84
2023/10/03 06:58:54;;;;;;;2.03;1.02;;;;;;;15.09;100.00;100794.41;5067121;28;20075;-82
2023/10/03 07:01:22;;;;;;;1.33;0.98;;;;;;;15.06;100.00;100796.97;5061308;28;20060;-83
2023/10/03 07:03:53;;;;;;;2.67;1.55;;;;;;;15.06;100.00;100795.25;5055015;28;20044;-83
2023/10/03 07:06:22;;;;;;;1.70;1.17;;;;;;;15.06;100.00;100797.84;5062476;28;20044;-82
2023/10/03 07:08:56;;;;;;;5.18;1.55;;;;;;;15.09;100.00;100804.81;5066475;28;20040;-81
2023/10/03 07:11:31;;;;;;;2.80;1.05;;;;;;;15.10;100.00;100805.72;5063462;28;20049;-82
2023/10/03 07:14:10;;;;;;;2.03;1.30;;;;;;;15.07;100.00;100806.53;5064373;28;20175;-81
2023/10/03 07:16:39;;;;;;;2.95;1.13;;;;;;;15.09;100.00;100804.81;5071696;28;20044;-82
2023/10/03 07:19:10;;;;;;;1.75;1.25;;;;;;;15.08;100.00;100805.69;5068165;28;20036;-83
2023/10/03 07:21:39;;;;;;;2.53;1.33;;;;;;;15.07;100.00;100812.63;5063143;28;20695;-82
2023/10/03 07:24:08;;;;;;;1.42;0.95;;;;;;;15.07;100.00;100811.75;5066685;28;20057;-81
2023/10/03 07:26:39;;;;;;;2.25;1.33;;;;;;;15.04;100.00;100811.72;5059459;28;20048;-83
2023/10/03 07:29:08;;;;;;;2.70;1.20;;;;;;;15.04;100.00;100812.59;5059405;28;20063;-80
2023/10/03 07:31:36;;;;;;;3.58;1.10;;;;;;;15.04;100.00;100824.75;5058330;28;20102;-80
2023/10/03 07:34:05;;;;;;;2.45;1.13;;;;;;;15.05;100.00;100818.69;5062800;28;20055;-83
2023/10/03 07:36:43;;;;;;;3.88;0.90;;;;;;;15.02;100.00;100816.91;5064622;28;20070;-82
2023/10/03 07:39:13;;;;;;;2.13;1.20;;;;;;;15.07;100.00;100824.78;5066851;28;20122;-83
2023/10/03 07:41:41;;;;;;;2.70;1.30;;;;;;;15.05;100.00;100813.47;5061890;28;20056;-80
2023/10/03 07:44:22;;;;;;;2.97;1.02;;;;;;;15.05;100.00;100816.94;5065412;28;20049;-81
2023/10/03 07:46:51;;;;;;;1.42;0.90;;;;;;;15.04;100.00;100828.22;5066357;28;20086;-80
2023/10/03 07:49:19;;;;;;;1.80;1.00;;;;;;;15.05;100.00;100827.38;5060203;28;20577;-83
2023/10/03 07:51:59;;;;;;;1.00;0.77;;;;;;;15.06;100.00;100831.72;5062425;28;20044;-82
2023/10/03 07:54:31;;;;;;;1.10;1.00;;;;;;;15.09;100.00;100830.88;5061349;28;20126;-81
2023/10/03 07:57:04;;;;;;;1.52;0.93;;;;;;;15.10;100.00;100832.66;5060648;28;20052;-81
2023/10/03 07:59:39;;;;;;;2.38;1.17;;;;;;;15.11;100.00;100831.78;5061492;28;20489;-83
2023/10/03 08:02:10;;;;;;;1.05;0.95;;;;;;;15.14;100.00;100837.03;5064745;28;20044;-81
2023/10/03 08:04:40;;;;;;;0.98;0.80;;;;;;;15.18;100.00;100844.03;5063757;28;20056;-86
2023/10/03 08:07:19;;;;;;;2.35;0.95;;;;;;;15.20;100.00;100844.91;5060318;28;20084;-84
2023/10/03 08:09:47;;;;;;;1.70;1.13;;;;;;;15.25;100.00;100852.78;5065967;28;20091;-83
2023/10/03 08:12:23;;;;;;;1.27;0.93;;;;;;;15.28;100.00;100858.94;5068101;28;20374;-83
2023/10/03 08:14:53;;;;;;;1.63;1.00;;;;;;;15.31;100.00;100865.03;5072894;28;20084;-82
2023/10/03 08:17:26;;;;;;;1.38;0.93;;;;;;;15.35;100.00;100872.03;5062492;28;20060;-81
2023/10/03 08:19:54;;;;;;;;;;;;;;;15.38;100.00;100874.69;5062087;28;20742;-80
2023/10/03 08:22:25;;;;;;;1.50;1.10;;;;;;;15.43;100.00;100875.59;5063850;28;19928;-81
2023/10/03 08:24:53;;;;;;;3.03;1.27;;;;;;;15.45;100.00;100879.09;5061714;28;20091;-81
2023/10/03 08:27:30;;;;;;;0.98;0.88;;;;;;;15.47;100.00;100885.22;5057473;28;20554;-81
2023/10/03 08:30:01;;;;;;;2.00;1.05;;;;;;;15.48;100.00;100887.84;5064117;28;20052;-81
2023/10/03 08:32:29;;;;;;;3.72;1.02;;;;;;;15.50;100.00;100891.31;5066257;28;20493;-82
2023/10/03 08:35:08;;;;;;;1.25;0.95;;;;;;;15.51;100.00;100902.66;5060553;28;20064;-80
2023/10/03 08:37:38;;;;;;;3.92;1.30;;;;;;;15.52;100.00;100904.38;5063367;28;20065;-82
2023/10/03 08:40:19;;;;;;;2.88;1.20;;;;;;;15.53;100.00;100903.56;5062610;28;20155;-82
2023/10/03 08:42:53;;;;;;;1.42;0.93;;;;;;;15.55;100.00;100912.25;5061038;28;20072;-81
2023/10/03 08:45:25;;;;;;;1.25;0.90;;;;;;;15.57;100.00;100913.13;5058153;28;20051;-81
2023/10/03 08:48:05;;;;;;;1.02;0.85;;;;;;;15.58;100.00;100914.91;5063325;28;20077;-82
2023/10/03 08:50:39;;;;;;;5.15;0.98;;;;;;;15.61;100.00;100919.28;5065494;28;20055;-80
2023/10/03 08:53:23;;;;;;;4.32;1.33;;;;;;;15.61;100.00;100912.31;5055173;28;20434;-81
2023/10/03 08:55:57;;;;;;;3.33;1.23;;;;;;;15.64;100.00;100907.13;5062065;28;20045;-80
2023/10/03 08:58:27;;;;;;;3.20;1.10;;;;;;;15.66;100.00;100918.44;5061687;28;20075;-79
2023/10/03 09:01:07;;;;;;;2.65;1.13;;;;;;;15.62;100.00;100908.88;5057172;28;20044;-81
2023/10/03 09:03:46;;;;;;;2.10;1.00;;;;;;;15.70;100.00;100919.38;5059275;28;20124;-80
2023/10/03 09:06:22;;;;;;;3.33;1.30;;;;;;;15.72;100.00;100925.53;5056841;28;20053;-81
2023/10/03 09:09:07;;;;;;;3.45;0.93;;;;;;;15.72;100.00;100915.09;5055852;28;20078;-81
2023/10/03 09:11:42;;;;;;;1.17;0.90;;;;;;;15.73;100.00;100921.16;5066175;28;20131;-82
2023/10/03 09:14:19;;;;;;;1.35;0.73;;;;;;;15.74;100.00;100925.56;5051289;28;20048;-82
2023/10/03 09:16:50;;;;;;;3.92;1.05;;;;;;;15.76;100.00;100932.53;5063614;28;20052;-81
2023/10/03 09:19:23;;;;;;;3.00;1.33;;;;;;;15.77;100.00;100926.44;5064028;28;20044;-81
2023/10/03 09:21:52;;;;;;;4.20;0.95;;;;;;;15.80;100.00;100925.59;5058803;28;20052;-81
2023/10/03 09:24:25;;;;;;;1.85;1.02;;;;;;;15.78;100.00;100924.69;5059168;28;20755;-81
2023/10/03 09:27:07;;;;;;;2.47;0.80;;;;;;;15.75;100.00;100927.28;5064311;28;20047;-81
2023/10/03 09:29:36;;;;;;;2.25;1.10;;;;;;;15.75;100.00;100925.53;5064386;28;20055;-81
2023/10/03 09:32:12;;;;;;;1.60;1.00;;;;;;;15.76;100.00;100923.81;5055858;28;20978;-81
2023/10/03 09:34:42;;;;;;;0.90;0.70;;;;;;;15.75;100.00;100937.72;5066917;28;20047;-81
2023/10/03 09:37:12;;;;;;;2.53;0.70;;;;;;;15.76;100.00;100931.63;5061354;28;20052;-81
2023/10/03 09:39:49;;;;;;;1.27;0.80;;;;;;;15.76;100.00;100931.63;5046250;28;20111;-81
2023/10/03 09:42:24;;;;;;;3.03;0.80;;;;;;;15.79;100.00;100929.94;5040166;28;20072;-82
2023/10/03 09:44:57;;;;;;;1.38;0.80;;;;;;;15.81;100.00;100932.59;5047140;28;20050;-81
2023/10/03 09:47:30;;;;;;;2.20;0.80;;;;;;;15.73;100.00;100914.22;5041809;28;20053;-80
2023/10/03 09:50:06;;;;;;;2.05;0.80;;;;;;;15.78;100.00;100915.16;5032166;28;20053;-81
2023/10/03 09:52:38;;;;;;;1.40;0.90;;;;;;;15.80;100.00;100920.38;5049161;28;20053;-81
2023/10/03 09:55:22;;;;;;;1.75;0.80;;;;;;;15.80;100.00;100931.69;5046054;28;20088;-82
2023/10/03 09:57:54;;;;;;;0.95;0.70;;;;;;;15.81;100.00;100922.16;5046630;28;20421;-82
2023/10/03 10:00:41;;;;;;;1.90;1.10;;;;;;;15.83;100.00;100926.53;5048886;28;20084;-82
2023/10/03 10:03:14;;;;;;;1.45;0.80;;;;;;;15.87;100.00;100935.22;5048607;28;20430;-81
2023/10/03 10:05:49;;;;;;;1.40;1.10;;;;;;;15.88;100.00;100939.63;5046901;28;20558;-82
2023/10/03 10:08:29;;;;;;;1.10;0.75;;;;;;;15.86;100.00;100931.75;5047223;28;20132;-82
2023/10/03 10:11:09;;;;;;;4.95;0.85;;;;;;;15.85;100.00;100934.34;5039657;28;20050;-82
2023/10/03 10:13:44;;;;;;;1.30;1.10;;;;;;;15.86;100.00;100936.97;5046650;28;20080;-81
2023/10/03 10:16:20;;;;;;;1.60;0.88;;;;;;;15.86;100.00;100929.16;5040863;28;20052;-81
2023/10/03 10:19:01;;;;;;;1.08;0.98;;;;;;;15.85;100.00;100929.13;5048461;28;20041;-82
2023/10/03 10:21:32;;;;;;;1.17;0.70;;;;;;;15.84;100.00;100940.44;5048423;28;20130;-83
2023/10/03 10:24:24;;;;;;;1.48;1.10;;;;;;;15.81;100.00;100938.66;5053864;28;20053;-81
2023/10/03 10:26:54;;;;;;;;;;;;;;;15.82;100.00;100949.97;5057584;28;20053;-82
2023/10/03 10:29:24;;;;;;;1.40;0.93;;;;;;;15.82;100.00;100942.16;5049816;28;19956;-81
2023/10/03 10:32:03;;;;;;;1.08;0.68;;;;;;;15.85;100.00;100953.50;5046815;28;20049;-81
2023/10/03 10:34:35;;;;;;;1.73;0.80;;;;;;;15.89;100.00;100951.78;5050152;28;20061;-80
2023/10/03 10:37:05;;;;;;;;;;;;;;;15.92;100.00;100964.88;5046192;28;20128;-82
2023/10/03 10:40:17;;;;;;;1.20;1.00;;;;;;;15.93;100.00;100964.00;5053604;28;19975;-84
2023/10/03 10:43:16;;;;;;;;;;;;;;;;;;;;;
2023/10/03 10:45:49;;;;;;;4.60;0.90;;;;;;;15.97;100.00;100971.03;5040955;28;20040;-81
2023/10/03 10:48:22;;;;;;;1.52;0.75;;;;;;;15.98;100.00;100970.16;5042630;28;20080;-80
2023/10/03 10:51:10;;;;;;;5.82;1.00;;;;;;;15.97;100.00;100973.63;5042600;28;20046;-81
2023/10/03 10:53:44;;;;;;;2.13;0.70;;;;;;;15.97;100.00;100972.78;5043031;28;20056;-80
2023/10/03 10:56:14;;;;;;;3.72;0.75;;;;;;;15.95;100.00;100977.09;5043396;28;20053;-80
2023/10/03 10:58:52;;;;;;;1.00;0.70;;;;;;;15.92;100.00;100970.09;5043404;28;20099;-82
2023/10/03 11:01:21;;;;;;;1.52;0.77;;;;;;;15.91;100.00;100977.03;5043626;28;20055;-81
2023/10/03 11:03:51;;;;;;;0.82;0.47;;;;;;;15.90;100.00;100985.75;5046153;28;20540;-82
2023/10/03 11:06:23;;;;;;;0.63;0.50;;;;;;;15.91;100.00;100982.25;5039268;28;20130;-80
2023/10/03 11:08:52;;;;;;;1.58;0.73;;;;;;;15.92;100.00;100985.75;5042918;28;20041;-81
2023/10/03 11:11:21;;;;;;;4.05;0.68;;;;;;;15.94;100.00;100980.53;5044668;28;20570;-81
2023/10/03 11:13:54;;;;;;;0.70;0.40;;;;;;;15.93;100.00;100987.50;5044877;28;20073;-80
2023/10/03 11:16:24;;;;;;;0.95;0.50;;;;;;;15.95;100.00;100988.41;5043964;28;20102;-81
2023/10/03 11:18:54;;;;;;;1.30;0.90;;;;;;;15.96;100.00;100981.44;5045077;28;20052;-80
2023/10/03 11:21:29;;;;;;;1.85;0.60;;;;;;;15.93;100.00;100987.50;5038444;28;20133;-81
2023/10/03 11:24:18;;;;;;;3.35;0.90;;;;;;;15.95;100.00;100988.41;5042685;28;20110;-81
2023/10/03 11:26:51;;;;;;;2.20;0.85;;;;;;;15.97;100.00;100997.13;5042955;28;20041;-81
2023/10/03 11:29:43;;;;;;;3.35;0.70;;;;;;;15.95;100.00;100998.84;5044710;28;20108;-81
2023/10/03 11:32:24;;;;;;;1.75;0.77;;;;;;;15.92;100.00;100996.19;5043053;28;20057;-80
2023/10/03 11:34:54;;;;;;;0.98;0.63;;;;;;;15.87;100.00;100995.25;5047393;28;20133;-81
2023/10/03 11:37:39;;;;;;;0.98;0.60;;;;;;;15.83;100.00;100994.34;5048244;28;20060;-82
2023/10/03 11:40:10;;;;;;;1.13;0.60;;;;;;;15.79;100.00;100996.91;5063892;28;20521;-81
2023/10/03 11:43:04;;;;;;;1.80;0.55;;;;;;;15.77;100.00;100998.63;5066402;28;20104;-81
2023/10/03 11:45:34;;;;;;;0.80;0.70;;;;;;;15.79;100.00;101002.13;5063268;28;20064;-80